createdAt,value
2023-03-05T00:00:13.054Z,26.40
2023-03-05T00:02:43.175Z,24.60
2023-03-05T00:05:10.586Z,24.58
2023-03-05T00:07:37.308Z,26.52
2023-03-05T00:10:05.660Z,23.00
2023-03-05T00:12:32.564Z,24.40
2023-03-05T00:14:59.316Z,28.08
2023-03-05T00:17:26.097Z,23.95
2023-03-05T00:19:52.937Z,25.80
2023-03-05T00:22:19.858Z,26.38
2023-03-05T00:24:46.704Z,22.50
2023-03-05T00:27:13.565Z,23.70
2023-03-05T00:29:40.580Z,24.85
2023-03-05T00:32:08.270Z,26.13
2023-03-05T00:34:36.614Z,26.67
2023-03-05T00:37:03.555Z,22.23
2023-03-05T00:39:30.342Z,26.67
2023-03-05T00:41:57.152Z,25.65
2023-03-05T00:44:24.285Z,25.23
2023-03-05T00:46:51.090Z,24.23
2023-03-05T00:49:17.874Z,34.00
2023-03-05T00:51:44.653Z,26.88
2023-03-05T00:54:11.891Z,30.65
2023-03-05T00:56:38.755Z,24.67
2023-03-05T00:59:05.567Z,28.65
2023-03-05T01:01:32.497Z,28.52
2023-03-05T01:04:01.241Z,29.88
2023-03-05T01:06:29.502Z,28.52
2023-03-05T01:08:56.831Z,31.48
2023-03-05T01:11:24.816Z,26.90
2023-03-05T01:13:51.733Z,32.42
2023-03-05T01:16:18.981Z,30.88
2023-03-05T01:18:45.797Z,26.17
2023-03-05T01:21:12.558Z,34.78
2023-03-05T01:23:39.373Z,34.50
2023-03-05T01:26:06.653Z,31.15
2023-03-05T01:28:33.556Z,36.75
2023-03-05T01:31:00.354Z,33.05
2023-03-05T01:33:27.181Z,31.17
2023-03-05T01:35:54.084Z,34.85
2023-03-05T01:38:21.042Z,32.83
2023-03-05T01:40:47.889Z,32.47
2023-03-05T01:43:24.028Z,35.15
2023-03-05T01:46:16.954Z,32.65
2023-03-05T01:48:47.811Z,37.05
2023-03-05T01:51:15.772Z,38.40
2023-03-05T01:53:43.133Z,37.47
2023-03-05T01:56:10.112Z,41.55
2023-03-05T01:58:39.791Z,35.45
2023-03-05T02:01:06.817Z,33.75
2023-03-05T02:03:34.778Z,37.97
2023-03-05T02:06:01.529Z,32.67
2023-03-05T02:08:28.346Z,37.38
2023-03-05T02:10:56.763Z,33.42
2023-03-05T02:13:26.876Z,34.85
2023-03-05T02:15:55.920Z,34.97
2023-03-05T02:18:23.759Z,35.42
2023-03-05T02:20:57.313Z,37.40
2023-03-05T02:23:29.541Z,38.13
2023-03-05T02:25:57.133Z,27.08
2023-03-05T02:28:49.032Z,36.50
2023-03-05T02:31:19.255Z,32.78
2023-03-05T02:33:46.780Z,37.13
2023-03-05T02:36:14.729Z,38.25
2023-03-05T02:38:42.870Z,29.90
2023-03-05T02:41:09.969Z,32.60
2023-03-05T02:43:37.595Z,33.83
2023-03-05T02:46:05.215Z,33.97
2023-03-05T02:48:32.856Z,31.05
2023-03-05T02:51:01.570Z,31.27
2023-03-05T02:53:28.408Z,36.40
2023-03-05T02:55:56.078Z,28.90
2023-03-05T02:58:22.924Z,32.45
2023-03-05T03:00:49.734Z,32.70
2023-03-05T03:03:16.663Z,34.95
2023-03-05T03:05:43.450Z,32.60
2023-03-05T03:08:10.645Z,34.03
2023-03-05T03:10:37.516Z,33.83
2023-03-05T03:13:04.282Z,33.45
2023-03-05T03:15:31.247Z,35.70
2023-03-05T03:17:58.137Z,35.20
2023-03-05T03:20:25.675Z,35.92
2023-03-05T03:22:52.494Z,32.70
2023-03-05T03:25:23.072Z,35.25
2023-03-05T03:27:52.102Z,40.95
2023-03-05T03:30:19.139Z,32.45
2023-03-05T03:32:45.974Z,47.28
2023-03-05T03:35:13.288Z,45.92
2023-03-05T03:37:40.394Z,38.65
2023-03-05T03:40:07.988Z,39.88
2023-03-05T03:42:34.837Z,40.15
2023-03-05T03:45:02.530Z,37.08
2023-03-05T03:47:30.812Z,35.90
2023-03-05T03:49:58.826Z,39.78
2023-03-05T03:52:26.505Z,40.35
2023-03-05T03:54:55.736Z,41.50
2023-03-05T03:57:22.777Z,40.05
2023-03-05T03:59:50.511Z,45.20
2023-03-05T04:02:17.891Z,39.22
2023-03-05T04:04:44.653Z,43.15
2023-03-05T04:07:11.554Z,41.87
2023-03-05T04:09:38.569Z,38.03
2023-03-05T04:12:05.768Z,43.03
2023-03-05T04:14:32.528Z,43.63
2023-03-05T04:16:59.269Z,46.13
2023-03-05T04:19:26.102Z,41.10
2023-03-05T04:21:52.809Z,43.53
2023-03-05T04:24:19.624Z,41.50
2023-03-05T04:26:46.421Z,39.10
2023-03-05T04:29:13.217Z,41.38
2023-03-05T04:31:40.011Z,40.45
2023-03-05T04:34:06.850Z,42.33
2023-03-05T04:36:33.687Z,43.40
2023-03-05T04:39:01.006Z,42.03
2023-03-05T04:41:27.897Z,40.53
2023-03-05T04:43:54.711Z,36.88
2023-03-05T04:46:21.686Z,42.92
2023-03-05T04:48:48.564Z,42.13
2023-03-05T04:51:15.402Z,38.17
2023-03-05T04:53:42.225Z,42.65
2023-03-05T04:56:09.053Z,47.88
2023-03-05T04:58:36.060Z,43.25
2023-03-05T05:01:04.484Z,40.20
2023-03-05T05:03:31.721Z,42.88
2023-03-05T05:05:59.764Z,49.00
2023-03-05T05:08:27.852Z,37.88
2023-03-05T05:10:57.427Z,41.33
2023-03-05T05:13:24.885Z,43.35
2023-03-05T05:15:52.455Z,39.55
2023-03-05T05:18:19.550Z,46.60
2023-03-05T05:20:46.695Z,42.42
2023-03-05T05:23:13.973Z,39.30
2023-03-05T05:25:40.921Z,44.95
2023-03-05T05:28:07.738Z,43.50
2023-03-05T05:30:34.584Z,40.67
2023-03-05T05:33:01.509Z,38.70
2023-03-05T05:35:28.315Z,41.47
2023-03-05T05:37:55.200Z,47.00
2023-03-05T05:40:22.156Z,40.35
2023-03-05T05:42:48.967Z,41.72
2023-03-05T05:45:15.749Z,40.45
2023-03-05T05:47:42.489Z,39.53
2023-03-05T05:50:10.951Z,40.33
2023-03-05T05:52:37.789Z,40.70
2023-03-05T05:55:05.029Z,41.22
2023-03-05T05:57:31.783Z,48.85
2023-03-05T05:59:58.662Z,42.08
2023-03-05T06:02:27.285Z,45.55
2023-03-05T06:04:54.091Z,63.58
2023-03-05T06:07:20.902Z,59.10
2023-03-05T06:09:47.684Z,58.58
2023-03-05T06:12:14.655Z,59.15
2023-03-05T06:14:41.422Z,57.38
2023-03-05T06:17:08.969Z,48.72
2023-03-05T06:19:36.637Z,41.00
2023-03-05T06:22:03.473Z,47.53
2023-03-05T06:24:30.314Z,47.53
2023-03-05T06:26:57.174Z,40.10
2023-03-05T06:29:23.995Z,44.45
2023-03-05T06:31:50.759Z,45.20
2023-03-05T06:34:17.542Z,46.22
2023-03-05T06:36:44.506Z,39.08
2023-03-05T06:39:11.869Z,43.50
2023-03-05T06:41:38.675Z,43.70
2023-03-05T06:44:05.628Z,40.28
2023-03-05T06:46:34.766Z,41.55
2023-03-05T06:49:02.685Z,43.35
2023-03-05T06:51:35.660Z,43.70
2023-03-05T06:54:05.989Z,41.08
2023-03-05T06:56:34.808Z,42.58
2023-03-05T06:59:01.582Z,42.40
2023-03-05T07:01:28.702Z,44.53
2023-03-05T07:03:58.985Z,40.88
2023-03-05T07:06:30.003Z,42.38
2023-03-05T07:08:57.220Z,43.30
2023-03-05T07:11:24.809Z,42.23
2023-03-05T07:13:51.630Z,40.55
2023-03-05T07:16:21.577Z,39.60
2023-03-05T07:18:49.000Z,38.92
2023-03-05T07:21:18.780Z,43.13
2023-03-05T07:23:46.017Z,46.22
2023-03-05T07:26:13.280Z,47.05
2023-03-05T07:28:40.507Z,45.88
2023-03-05T07:31:11.328Z,43.40
2023-03-05T07:33:38.258Z,43.38
2023-03-05T07:36:08.949Z,46.60
2023-03-05T07:38:36.024Z,45.40
2023-03-05T07:41:06.551Z,41.15
2023-03-05T07:43:33.368Z,42.88
2023-03-05T07:46:00.270Z,41.92
2023-03-05T07:48:27.193Z,45.38
2023-03-05T07:51:12.627Z,43.80
2023-03-05T07:53:39.462Z,44.80
2023-03-05T07:56:06.732Z,45.75
2023-03-05T07:58:33.509Z,46.67
2023-03-05T08:01:00.511Z,44.42
2023-03-05T08:03:27.338Z,44.10
2023-03-05T08:05:54.224Z,40.67
2023-03-05T08:08:21.235Z,46.83
2023-03-05T08:10:48.100Z,49.83
2023-03-05T08:13:14.854Z,47.53
2023-03-05T08:15:41.692Z,50.53
2023-03-05T08:18:08.448Z,47.05
2023-03-05T08:20:36.627Z,43.20
2023-03-05T08:23:04.024Z,39.40
2023-03-05T08:25:31.615Z,45.17
2023-03-05T08:27:58.509Z,45.03
2023-03-05T08:30:27.488Z,42.47
2023-03-05T08:32:55.103Z,51.70
2023-03-05T08:35:22.061Z,47.58
2023-03-05T08:37:49.028Z,51.65
2023-03-05T08:40:18.073Z,49.58
2023-03-05T08:42:45.476Z,42.03
2023-03-05T08:45:12.900Z,39.53
2023-03-05T08:47:39.971Z,41.50
2023-03-05T08:50:07.133Z,44.85
2023-03-05T08:52:33.927Z,40.95
2023-03-05T08:55:00.774Z,38.03
2023-03-05T08:57:27.643Z,42.08
2023-03-05T08:59:54.420Z,43.00
2023-03-05T09:02:21.309Z,41.38
2023-03-05T09:04:48.105Z,41.50
2023-03-05T09:07:14.912Z,36.30
2023-03-05T09:09:41.717Z,45.08
2023-03-05T09:12:12.031Z,38.85
2023-03-05T09:14:40.562Z,32.90
2023-03-05T09:17:07.564Z,38.78
2023-03-05T09:19:34.453Z,44.22
2023-03-05T09:22:01.193Z,39.53
2023-03-05T09:24:27.952Z,41.80
2023-03-05T09:26:59.159Z,44.03
2023-03-05T09:29:26.939Z,42.58
2023-03-05T09:31:54.873Z,35.42
2023-03-05T09:34:22.716Z,43.42
2023-03-05T09:36:50.255Z,38.95
2023-03-05T09:39:17.234Z,43.88
2023-03-05T09:42:20.556Z,43.28
2023-03-05T09:45:06.595Z,35.80
2023-03-05T09:47:54.609Z,42.42
2023-03-05T09:50:33.426Z,37.15
2023-03-05T09:53:22.712Z,43.70
2023-03-05T09:56:03.833Z,37.85
2023-03-05T09:58:43.938Z,37.80
2023-03-05T10:01:23.333Z,37.10
2023-03-05T10:04:08.865Z,40.75
2023-03-05T10:06:42.575Z,34.65
2023-03-05T10:09:28.393Z,35.63
2023-03-05T10:12:05.514Z,37.90
2023-03-05T10:14:39.674Z,30.60
2023-03-05T10:17:39.634Z,34.53
2023-03-05T10:20:38.699Z,31.85
2023-03-05T10:23:25.482Z,27.55
2023-03-05T10:26:04.152Z,31.15
2023-03-05T10:29:08.809Z,37.95
2023-03-05T10:31:41.516Z,28.80
2023-03-05T10:34:23.892Z,32.70
2023-03-05T10:37:06.040Z,33.60
2023-03-05T10:39:41.710Z,32.08
2023-03-05T10:42:14.213Z,30.25
2023-03-05T10:44:59.249Z,31.00
2023-03-05T10:47:37.753Z,28.50
2023-03-05T10:50:19.530Z,28.52
2023-03-05T10:52:51.773Z,29.48
2023-03-05T10:55:22.218Z,33.88
2023-03-05T10:57:49.101Z,26.35
2023-03-05T11:00:22.712Z,27.80
2023-03-05T11:03:04.605Z,23.92
2023-03-05T11:05:47.997Z,26.92
2023-03-05T11:08:33.006Z,26.55
2023-03-05T11:11:13.207Z,18.75
2023-03-05T11:13:53.524Z,23.50
2023-03-05T11:16:27.085Z,22.40
2023-03-05T11:19:24.619Z,26.05
2023-03-05T11:22:16.221Z,25.88
2023-03-05T11:24:46.700Z,29.80
2023-03-05T11:27:48.517Z,23.23
2023-03-05T11:30:21.677Z,22.83
2023-03-05T11:32:48.683Z,23.38
2023-03-05T11:35:37.198Z,22.30
2023-03-05T11:38:06.381Z,23.17
2023-03-05T11:40:37.839Z,23.83
2023-03-05T11:43:05.064Z,22.55
2023-03-05T11:45:34.081Z,24.33
2023-03-05T11:48:18.299Z,22.15
2023-03-05T11:50:51.429Z,26.52
2023-03-05T11:53:23.815Z,24.05
2023-03-05T11:55:55.210Z,21.90
2023-03-05T11:58:33.851Z,26.08
2023-03-05T12:01:01.614Z,20.90
2023-03-05T12:03:34.991Z,21.00
2023-03-05T12:06:16.660Z,21.48
2023-03-05T12:08:48.984Z,21.48
2023-03-05T12:11:26.500Z,23.50
2023-03-05T12:14:17.636Z,20.42
2023-03-05T12:17:03.001Z,20.08
2023-03-05T12:19:32.990Z,20.50
2023-03-05T12:21:59.928Z,21.13
2023-03-05T12:24:33.493Z,23.85
2023-03-05T12:27:04.536Z,23.85
2023-03-05T12:29:39.189Z,20.08
2023-03-05T12:32:28.808Z,19.08
2023-03-05T12:35:01.735Z,22.85
2023-03-05T12:37:28.479Z,23.45
2023-03-05T12:40:08.839Z,18.67
2023-03-05T12:42:35.663Z,22.27
2023-03-05T12:45:11.955Z,22.98
2023-03-05T12:47:40.579Z,20.67
2023-03-05T12:50:29.184Z,19.77
2023-03-05T12:52:57.462Z,18.83
2023-03-05T12:55:28.063Z,21.80
2023-03-05T12:58:11.872Z,21.65
2023-03-05T13:00:46.414Z,24.42
2023-03-05T13:03:19.301Z,19.30
2023-03-05T13:05:54.737Z,21.42
2023-03-05T13:08:26.333Z,18.23
2023-03-05T13:10:59.206Z,19.23
2023-03-05T13:13:28.685Z,19.83
2023-03-05T13:15:57.265Z,17.08
2023-03-05T13:18:29.392Z,20.15
2023-03-05T13:21:08.424Z,18.73
2023-03-05T13:23:35.928Z,19.25
2023-03-05T13:26:18.930Z,20.08
2023-03-05T13:29:03.827Z,17.67
2023-03-05T13:31:31.290Z,21.42
2023-03-05T13:34:08.982Z,19.98
2023-03-05T13:36:37.360Z,18.42
2023-03-05T13:39:05.689Z,15.07
2023-03-05T13:41:32.501Z,13.70
2023-03-05T13:44:01.389Z,14.70
2023-03-05T13:46:30.036Z,17.42
2023-03-05T13:48:59.259Z,18.52
2023-03-05T13:51:41.802Z,16.85
2023-03-05T13:54:10.999Z,14.27
2023-03-05T13:56:48.172Z,13.82
2023-03-05T13:59:20.829Z,16.02
2023-03-05T14:01:48.467Z,15.68
2023-03-05T14:04:15.626Z,17.92
2023-03-05T14:06:54.570Z,16.80
2023-03-05T14:09:25.403Z,13.07
2023-03-05T14:12:04.771Z,15.57
2023-03-05T14:14:36.724Z,14.00
2023-03-05T14:17:39.386Z,17.27
2023-03-05T14:20:09.450Z,14.05
2023-03-05T14:22:38.483Z,16.50
2023-03-05T14:25:07.080Z,15.63
2023-03-05T14:27:36.148Z,15.07
2023-03-05T14:30:14.092Z,13.93
2023-03-05T14:32:44.808Z,14.05
2023-03-05T14:35:24.183Z,13.85
2023-03-05T14:37:53.408Z,13.93
2023-03-05T14:40:34.546Z,14.70
2023-03-05T14:43:10.621Z,15.82
2023-03-05T14:45:43.630Z,18.92
2023-03-05T14:48:13.518Z,15.52
2023-03-05T14:50:51.659Z,12.75
2023-03-05T14:53:29.438Z,17.05
2023-03-05T14:55:57.184Z,16.00
2023-03-05T14:58:32.282Z,19.73
2023-03-05T15:00:59.861Z,15.65
2023-03-05T15:03:28.058Z,15.40
2023-03-05T15:05:57.714Z,15.90
2023-03-05T15:08:30.020Z,18.70
2023-03-05T15:10:57.762Z,17.85
2023-03-05T15:13:24.842Z,15.82
2023-03-05T15:15:53.096Z,16.00
2023-03-05T15:18:21.803Z,19.98
2023-03-05T15:20:49.288Z,20.05
2023-03-05T15:23:16.115Z,18.27
2023-03-05T15:25:43.306Z,17.42
2023-03-05T15:28:10.154Z,20.90
2023-03-05T15:30:40.465Z,23.13
2023-03-05T15:33:13.015Z,25.92
2023-03-05T15:35:40.477Z,26.58
2023-03-05T15:38:07.386Z,23.92
2023-03-05T15:40:34.484Z,24.50
2023-03-05T15:43:01.666Z,22.38
2023-03-05T15:45:31.335Z,23.00
2023-03-05T15:47:58.698Z,26.20
2023-03-05T15:50:25.545Z,23.27
2023-03-05T15:52:52.489Z,24.08
2023-03-05T15:55:19.624Z,19.65
2023-03-05T15:57:50.943Z,20.92
2023-03-05T16:00:25.566Z,24.02
2023-03-05T16:02:53.566Z,24.20
2023-03-05T16:05:20.402Z,26.42
2023-03-05T16:07:51.175Z,24.13
2023-03-05T16:10:22.369Z,24.10
2023-03-05T16:12:52.659Z,22.92
2023-03-05T16:15:21.302Z,22.77
2023-03-05T16:17:51.958Z,24.45
2023-03-05T16:20:19.571Z,26.38
2023-03-05T16:22:46.653Z,21.40
2023-03-05T16:25:13.617Z,21.65
2023-03-05T16:27:40.408Z,23.42
2023-03-05T16:30:08.412Z,20.42
2023-03-05T16:32:37.685Z,20.98
2023-03-05T16:35:05.041Z,18.55
2023-03-05T16:37:31.899Z,19.23
2023-03-05T16:40:01.984Z,20.83
2023-03-05T16:42:28.777Z,19.10
2023-03-05T16:44:55.566Z,17.00
2023-03-05T16:47:22.381Z,16.75
2023-03-05T16:49:49.259Z,16.52
2023-03-05T16:52:19.692Z,16.27
2023-03-05T16:54:48.266Z,20.83
2023-03-05T16:57:15.660Z,17.45
2023-03-05T16:59:43.859Z,16.25
2023-03-05T17:02:13.233Z,17.00
2023-03-05T17:04:40.207Z,15.30
2023-03-05T17:07:07.791Z,13.73
2023-03-05T17:09:34.720Z,14.20
2023-03-05T17:12:02.272Z,13.63
2023-03-05T17:14:29.589Z,13.88
2023-03-05T17:16:56.581Z,17.77
2023-03-05T17:19:23.418Z,14.55
2023-03-05T17:21:52.518Z,15.02
2023-03-05T17:24:22.305Z,15.38
2023-03-05T17:26:50.684Z,16.30
2023-03-05T17:29:19.085Z,15.38
2023-03-05T17:31:47.180Z,15.23
2023-03-05T17:34:14.642Z,13.30
2023-03-05T17:36:41.584Z,12.93
2023-03-05T17:39:08.893Z,14.75
2023-03-05T17:41:36.194Z,15.48
2023-03-05T17:44:03.353Z,17.75
2023-03-05T17:46:30.249Z,15.43
2023-03-05T17:48:57.034Z,15.10
2023-03-05T17:51:25.004Z,14.75
2023-03-05T17:53:51.848Z,12.75
2023-03-05T17:56:21.945Z,15.50
2023-03-05T17:58:49.996Z,14.88
2023-03-05T18:01:29.426Z,15.27
2023-03-05T18:03:57.161Z,14.50
2023-03-05T18:06:24.375Z,17.05
2023-03-05T18:08:51.311Z,16.00
2023-03-05T18:11:19.092Z,14.07
2023-03-05T18:13:45.905Z,16.10
2023-03-05T18:16:16.842Z,15.55
2023-03-05T18:18:44.648Z,16.20
2023-03-05T18:21:11.800Z,17.33
2023-03-05T18:23:38.628Z,17.05
2023-03-05T18:26:05.510Z,14.77
2023-03-05T18:28:32.288Z,17.50
2023-03-05T18:30:59.274Z,17.58
2023-03-05T18:33:26.124Z,15.70
2023-03-05T18:35:53.473Z,15.93
2023-03-05T18:38:21.989Z,20.67
2023-03-05T18:40:51.248Z,16.63
2023-03-05T18:43:20.654Z,17.10
2023-03-05T18:45:52.701Z,17.55
2023-03-05T18:48:20.441Z,17.58
2023-03-05T18:50:51.219Z,17.67
2023-03-05T18:53:18.470Z,17.23
2023-03-05T18:55:45.897Z,15.68
2023-03-05T18:58:15.979Z,16.90
2023-03-05T19:00:45.052Z,18.35
2023-03-05T19:03:13.121Z,19.25
2023-03-05T19:05:40.663Z,17.65
2023-03-05T19:08:10.360Z,19.05
2023-03-05T19:10:37.616Z,17.55
2023-03-05T19:13:43.475Z,17.35
2023-03-05T19:16:22.446Z,20.30
2023-03-05T19:19:20.066Z,16.85
2023-03-05T19:21:55.201Z,17.63
2023-03-05T19:24:23.771Z,16.30
2023-03-05T19:26:55.171Z,16.55
2023-03-05T19:29:23.982Z,18.63
2023-03-05T19:31:52.029Z,17.95
2023-03-05T19:34:20.630Z,15.73
2023-03-05T19:36:47.577Z,18.45
2023-03-05T19:39:14.343Z,16.35
2023-03-05T19:41:41.347Z,17.25
2023-03-05T19:44:08.972Z,20.23
2023-03-05T19:46:35.781Z,14.88
2023-03-05T19:49:02.650Z,18.02
2023-03-05T19:51:29.500Z,15.77
2023-03-05T19:53:56.403Z,18.42
2023-03-05T19:56:23.258Z,19.55
2023-03-05T19:58:50.460Z,19.05
2023-03-05T20:01:25.998Z,19.80
2023-03-05T20:03:56.854Z,19.88
2023-03-05T20:06:24.429Z,18.77
2023-03-05T20:08:51.480Z,17.83
2023-03-05T20:11:18.916Z,21.90
2023-03-05T20:13:46.284Z,18.85
2023-03-05T20:16:25.843Z,19.33
2023-03-05T20:18:55.017Z,22.17
2023-03-05T20:21:27.736Z,16.58
2023-03-05T20:23:56.979Z,21.25
2023-03-05T20:26:28.023Z,19.25
2023-03-05T20:28:56.059Z,21.45
2023-03-05T20:31:24.980Z,21.98
2023-03-05T20:33:51.818Z,23.73
2023-03-05T20:36:18.697Z,23.20
2023-03-05T20:38:46.327Z,21.38
2023-03-05T20:41:16.731Z,21.48
2023-03-05T20:43:46.208Z,21.77
2023-03-05T20:46:16.003Z,22.48
2023-03-05T20:48:42.938Z,26.58
2023-03-05T20:51:15.203Z,22.50
2023-03-05T20:53:42.945Z,25.20
2023-03-05T20:56:09.742Z,18.48
2023-03-05T20:58:37.562Z,22.33
2023-03-05T21:01:04.804Z,19.92
2023-03-05T21:03:31.691Z,18.55
2023-03-05T21:05:58.772Z,25.35
2023-03-05T21:08:25.449Z,17.23
2023-03-05T21:10:52.231Z,17.90
2023-03-05T21:13:19.138Z,17.13
2023-03-05T21:15:45.879Z,21.58
2023-03-05T21:18:12.669Z,18.45
2023-03-05T21:20:39.958Z,17.13
2023-03-05T21:23:06.845Z,16.02
2023-03-05T21:25:33.960Z,16.65
2023-03-05T21:28:02.200Z,19.85
2023-03-05T21:30:34.557Z,19.67
2023-03-05T21:33:03.322Z,17.88
2023-03-05T21:35:32.697Z,16.17
2023-03-05T21:38:00.418Z,18.77
2023-03-05T21:40:28.231Z,17.60
2023-03-05T21:42:55.676Z,17.40
2023-03-05T21:45:26.086Z,20.38
2023-03-05T21:47:53.303Z,22.40
2023-03-05T21:50:21.278Z,17.23
2023-03-05T21:52:48.356Z,17.90
2023-03-05T21:55:18.665Z,20.25
2023-03-05T21:57:45.983Z,16.40
2023-03-05T22:00:13.403Z,20.65
2023-03-05T22:02:41.080Z,20.90
2023-03-05T22:05:12.259Z,15.80
2023-03-05T22:07:39.937Z,18.30
2023-03-05T22:10:08.242Z,18.27
2023-03-05T22:12:53.098Z,23.00
2023-03-05T22:15:20.814Z,21.30
2023-03-05T22:17:47.674Z,16.75
2023-03-05T22:20:14.944Z,17.55
2023-03-05T22:22:42.020Z,18.08
2023-03-05T22:25:09.573Z,16.20
2023-03-05T22:27:36.279Z,22.42
2023-03-05T22:30:05.507Z,18.70
2023-03-05T22:32:36.909Z,17.73
2023-03-05T22:35:05.234Z,17.67
2023-03-05T22:37:33.086Z,22.45
2023-03-05T22:39:59.866Z,24.80
2023-03-05T22:42:26.779Z,26.77
2023-03-05T22:44:58.070Z,27.52
2023-03-05T22:47:27.080Z,23.63
2023-03-05T22:49:53.878Z,24.30
2023-03-05T22:52:20.666Z,20.98
2023-03-05T22:54:47.471Z,23.45
2023-03-05T22:57:14.374Z,27.38
2023-03-05T22:59:41.423Z,23.67
2023-03-05T23:02:08.471Z,26.67
2023-03-05T23:04:54.964Z,24.83
2023-03-05T23:07:25.572Z,20.75
2023-03-05T23:10:03.083Z,21.88
2023-03-05T23:12:33.667Z,19.05
2023-03-05T23:15:02.025Z,23.98
2023-03-05T23:17:28.908Z,20.55
2023-03-05T23:19:55.803Z,23.73
2023-03-05T23:22:22.591Z,21.35
2023-03-05T23:24:49.383Z,25.30
2023-03-05T23:27:18.363Z,24.48
2023-03-05T23:29:58.252Z,23.20
2023-03-05T23:32:28.674Z,25.40
2023-03-05T23:34:56.486Z,23.95
2023-03-05T23:37:23.318Z,23.27
2023-03-05T23:39:51.163Z,20.13
2023-03-05T23:42:17.899Z,23.60
2023-03-05T23:44:44.598Z,21.52
2023-03-05T23:47:11.330Z,25.63
2023-03-05T23:49:38.242Z,27.45
2023-03-05T23:52:05.310Z,23.83
2023-03-05T23:54:32.108Z,24.35
2023-03-05T23:56:59.087Z,27.23
2023-03-05T23:59:25.820Z,31.33
